Scott AFB,Midamerica Airport Belleville US
ICAO: KBLV
IATA: BLV
Category: Large
Scheduled Services: No

Elevation: 459 ft
TransAlt. 18000 ft.

Airport Communications:
ST LOUIS APP/DEP:125.2
126 ARW COMD POST:138.55
ATIS:128.7
CLNC DEL:121.75
GND:119.2
PMSV METRO:23.98
375 AW COMD POST:130.65
PTD:139.85
TWR:118.65
UNICOM:122.95

KBLV Zoom In..

Runways:

(A) RW 14L length 10000 ft width 150 ft
ILS 111.15 / hdg 135

(B) RW 14R length 8010 ft width 150 ft
ILS 109.90 / hdg 135

(C) RW 32L length 8010 ft width 150 ft
ILS 109.90 / hdg 315

(D) RW 32R length 10000 ft width 150 ft
ILS 111.15 / hdg 315

Location; KBLV
Day. 19 / Time. 19.56 Zulu
* Altimeter: 29.89
* Temperature: 29° c. 84.2°f.
* Wind from: 200° Speed 05 kn.
Dewpoint: 22° c.
Visibility: 10 Statute Miles.
Clouds: Few 5500 ft.
Clouds: Scattered 1000 ft.
Clouds: Scattered 13000 ft.
Clouds: Broken 17000 ft.
Clouds: Overcast 2000 ft.

KBLV 191956Z AUTO 20005KT 10SM FEW055 SCT100 SCT130 BKN170 OVC200 29/22 A2989 RMK AO2 SLP121 T02880215 $


Wind From 200°
Speed 05 kn.

 
 
jpsmedia.com for Web Design worldairports.se 2018   terms of use